createdAt,value
2019-06-20T00:00:29.935Z,57.00
2019-06-20T00:02:59.081Z,57.00
2019-06-20T00:05:28.191Z,56.30
2019-06-20T00:07:57.271Z,55.60
2019-06-20T00:10:26.359Z,54.70
2019-06-20T00:13:00.494Z,54.50
2019-06-20T00:15:26.219Z,54.40
2019-06-20T00:17:55.187Z,55.00
2019-06-20T00:20:24.227Z,54.70
2019-06-20T00:22:53.329Z,54.70
2019-06-20T00:25:22.385Z,54.80
2019-06-20T00:27:51.433Z,55.40
2019-06-20T00:30:20.608Z,54.70
2019-06-20T00:32:49.570Z,54.60
2019-06-20T00:35:18.634Z,54.60
2019-06-20T00:37:47.607Z,54.60
2019-06-20T00:40:17.157Z,54.80
2019-06-20T00:42:46.171Z,54.70
2019-06-20T00:45:15.531Z,54.80
2019-06-20T00:47:44.659Z,55.10
2019-06-20T00:50:13.939Z,54.80
2019-06-20T00:52:42.993Z,54.50
2019-06-20T00:55:12.050Z,54.50
2019-06-20T00:57:41.204Z,54.50
2019-06-20T01:00:11.075Z,54.80
2019-06-20T01:02:40.117Z,54.10
2019-06-20T01:05:09.382Z,53.80
2019-06-20T01:07:38.503Z,53.60
2019-06-20T01:10:08.431Z,53.70
2019-06-20T01:12:37.504Z,53.30
2019-06-20T01:15:07.357Z,53.40
2019-06-20T01:17:36.414Z,53.40
2019-06-20T01:20:06.287Z,53.20
2019-06-20T01:22:35.342Z,53.10
2019-06-20T01:25:04.774Z,53.10
2019-06-20T01:27:33.748Z,53.10
2019-06-20T01:30:02.812Z,53.00
2019-06-20T01:32:31.904Z,52.70
2019-06-20T01:35:00.894Z,52.80
2019-06-20T01:37:29.834Z,52.50
2019-06-20T01:39:58.975Z,52.50
2019-06-20T01:42:28.018Z,52.70
2019-06-20T01:44:56.951Z,52.70
2019-06-20T01:47:25.856Z,52.80
2019-06-20T01:49:54.843Z,52.40
2019-06-20T01:52:23.937Z,52.00
2019-06-20T01:54:52.845Z,52.30
2019-06-20T01:57:21.973Z,52.20
2019-06-20T01:59:51.025Z,52.50
2019-06-20T02:02:20.183Z,52.40
2019-06-20T02:04:49.271Z,53.10
2019-06-20T02:07:18.409Z,53.20
2019-06-20T02:09:47.473Z,54.10
2019-06-20T02:12:16.623Z,54.90
2019-06-20T02:14:45.544Z,55.70
2019-06-20T02:17:14.577Z,56.10
2019-06-20T02:19:43.702Z,56.50
2019-06-20T02:22:12.685Z,56.60
2019-06-20T02:24:41.758Z,57.50
2019-06-20T02:27:10.874Z,58.40
2019-06-20T02:29:39.922Z,58.90
2019-06-20T02:32:08.989Z,59.40
2019-06-20T02:34:37.979Z,59.90
2019-06-20T02:37:06.982Z,61.10
2019-06-20T02:39:35.899Z,60.60
2019-06-20T02:42:05.062Z,62.40
2019-06-20T02:44:34.120Z,63.50
2019-06-20T02:47:03.170Z,64.00
2019-06-20T02:49:32.322Z,64.60
2019-06-20T02:52:01.296Z,65.40
2019-06-20T02:54:30.518Z,66.10
2019-06-20T02:56:59.600Z,65.40
2019-06-20T02:59:28.654Z,65.00
2019-06-20T03:01:57.688Z,65.50
2019-06-20T03:04:26.739Z,65.80
2019-06-20T03:06:55.655Z,66.20
2019-06-20T03:09:24.653Z,65.40
2019-06-20T03:11:53.651Z,66.30
2019-06-20T03:14:22.667Z,65.10
2019-06-20T03:16:51.723Z,64.30
2019-06-20T03:19:20.860Z,64.90
2019-06-20T03:21:49.909Z,64.00
2019-06-20T03:24:18.914Z,65.40
2019-06-20T03:26:47.822Z,65.40
2019-06-20T03:29:16.846Z,64.60
2019-06-20T03:31:45.991Z,65.30
2019-06-20T03:34:14.995Z,65.10
2019-06-20T03:36:44.016Z,65.70
2019-06-20T03:39:13.008Z,65.70
2019-06-20T03:41:42.197Z,66.10
2019-06-20T03:44:11.304Z,66.20
2019-06-20T03:46:40.342Z,66.50
2019-06-20T03:49:09.341Z,66.60
2019-06-20T03:51:38.482Z,66.80
2019-06-20T03:54:07.525Z,67.00
2019-06-20T03:56:36.595Z,67.40
2019-06-20T03:59:05.659Z,67.30
2019-06-20T04:01:34.788Z,67.40
2019-06-20T04:04:03.883Z,67.40
2019-06-20T04:06:32.885Z,67.50
2019-06-20T04:09:01.853Z,67.50
2019-06-20T04:11:30.942Z,67.50
2019-06-20T04:14:00.004Z,67.70
2019-06-20T04:16:28.978Z,67.70
2019-06-20T04:18:57.931Z,67.90
2019-06-20T04:21:26.931Z,68.10
2019-06-20T04:23:55.921Z,68.20
2019-06-20T04:26:24.926Z,68.20
2019-06-20T04:28:53.989Z,67.90
2019-06-20T04:31:22.917Z,67.90
2019-06-20T04:33:51.895Z,67.90
2019-06-20T04:36:20.887Z,68.10
2019-06-20T04:38:50.016Z,68.20
2019-06-20T04:41:19.076Z,68.30
2019-06-20T04:43:48.139Z,68.30
2019-06-20T04:46:25.567Z,68.60
2019-06-20T04:48:54.632Z,68.50
2019-06-20T04:51:23.726Z,68.40
2019-06-20T04:53:52.763Z,68.30
2019-06-20T04:56:21.882Z,68.40
2019-06-20T04:58:50.967Z,68.70
2019-06-20T05:01:20.020Z,68.70
2019-06-20T05:03:49.031Z,69.40
2019-06-20T05:06:18.095Z,69.00
2019-06-20T05:08:47.100Z,68.60
2019-06-20T05:11:16.151Z,69.00
2019-06-20T05:13:45.158Z,68.80
2019-06-20T05:16:14.144Z,69.20
2019-06-20T05:18:43.051Z,69.30
2019-06-20T05:21:12.056Z,69.60
2019-06-20T05:23:41.010Z,69.70
2019-06-20T05:26:10.078Z,70.10
2019-06-20T05:28:39.156Z,70.60
2019-06-20T05:31:08.081Z,70.30
2019-06-20T05:33:37.236Z,70.60
2019-06-20T05:36:06.303Z,71.30
2019-06-20T05:38:35.375Z,71.60
2019-06-20T05:41:04.450Z,71.30
2019-06-20T05:43:33.552Z,71.90
2019-06-20T05:46:09.633Z,71.70
2019-06-20T05:48:33.338Z,72.30
2019-06-20T05:51:02.391Z,72.50
2019-06-20T05:53:31.424Z,72.60
2019-06-20T05:56:00.559Z,72.50
2019-06-20T05:58:29.631Z,72.50
2019-06-20T06:00:58.551Z,72.80
2019-06-20T06:03:27.733Z,73.90
2019-06-20T06:05:56.718Z,73.30
2019-06-20T06:08:25.822Z,72.80
2019-06-20T06:10:54.842Z,72.70
2019-06-20T06:13:23.824Z,71.40
2019-06-20T06:15:52.826Z,71.30
2019-06-20T06:18:21.818Z,72.00
2019-06-20T06:20:50.726Z,71.20
2019-06-20T06:23:19.720Z,70.30
2019-06-20T06:25:48.844Z,70.60
2019-06-20T06:28:17.918Z,70.20
2019-06-20T06:30:46.972Z,71.00
2019-06-20T06:33:16.064Z,71.40
2019-06-20T06:35:45.226Z,71.40
2019-06-20T06:38:14.302Z,71.90
2019-06-20T06:40:43.306Z,71.90
2019-06-20T06:43:12.226Z,72.10
2019-06-20T06:45:41.286Z,72.10
2019-06-20T06:48:10.375Z,71.40
2019-06-20T06:50:39.532Z,71.00
2019-06-20T06:53:08.624Z,71.60
2019-06-20T06:55:37.750Z,71.30
2019-06-20T06:58:06.827Z,71.70
2019-06-20T07:00:35.938Z,71.30
2019-06-20T07:03:06.674Z,70.90
2019-06-20T07:05:35.729Z,71.30
2019-06-20T07:08:04.872Z,71.30
2019-06-20T07:10:34.003Z,70.80
2019-06-20T07:13:03.102Z,70.50
2019-06-20T07:15:32.214Z,70.90
2019-06-20T07:18:01.349Z,70.90
2019-06-20T07:20:30.471Z,68.90
2019-06-20T07:22:59.624Z,69.80
2019-06-20T07:25:28.688Z,70.60
2019-06-20T07:27:57.777Z,70.90
2019-06-20T07:30:26.890Z,70.10
2019-06-20T07:32:56.021Z,70.30
2019-06-20T07:35:25.031Z,69.20
2019-06-20T07:37:54.061Z,68.90
2019-06-20T07:40:23.108Z,68.70
2019-06-20T07:42:52.106Z,68.80
2019-06-20T07:45:27.272Z,69.60
2019-06-20T07:47:56.759Z,68.70
2019-06-20T07:50:25.831Z,68.50
2019-06-20T07:53:01.936Z,68.50
2019-06-20T07:55:25.737Z,68.00
2019-06-20T07:57:54.863Z,68.40
2019-06-20T08:00:24.518Z,67.50
2019-06-20T08:02:53.674Z,67.30
2019-06-20T08:05:23.311Z,65.60
2019-06-20T08:07:52.473Z,65.80
2019-06-20T08:10:21.733Z,65.60
2019-06-20T08:12:50.882Z,65.60
2019-06-20T08:15:20.178Z,65.10
2019-06-20T08:17:49.407Z,64.50
2019-06-20T08:20:19.042Z,65.10
2019-06-20T08:22:48.102Z,65.90
2019-06-20T08:25:17.776Z,63.90
2019-06-20T08:27:51.860Z,64.70
2019-06-20T08:30:28.355Z,65.70
2019-06-20T08:32:59.868Z,66.30
2019-06-20T08:35:29.926Z,64.20
2019-06-20T08:38:01.012Z,64.30
2019-06-20T08:40:31.938Z,65.50
2019-06-20T08:43:02.148Z,68.00
2019-06-20T08:45:32.790Z,68.70
2019-06-20T08:48:02.583Z,68.90
2019-06-20T08:50:32.314Z,64.60
2019-06-20T08:53:01.764Z,66.60
2019-06-20T08:55:30.991Z,69.60
2019-06-20T08:58:01.484Z,70.80
2019-06-20T09:00:32.877Z,71.20
2019-06-20T09:05:32.131Z,67.70
2019-06-20T09:10:37.421Z,69.50
2019-06-20T09:13:07.717Z,73.00
2019-06-20T09:15:37.239Z,70.60
2019-06-20T09:18:07.464Z,70.20
2019-06-20T09:20:36.782Z,71.10
2019-06-20T09:23:06.030Z,70.70
2019-06-20T09:25:35.465Z,71.30
2019-06-20T09:28:05.523Z,72.30
2019-06-20T09:30:35.007Z,72.80
2019-06-20T09:33:04.263Z,73.90
2019-06-20T09:35:33.439Z,72.20
2019-06-20T09:38:03.477Z,68.70
2019-06-20T09:40:32.785Z,71.90
2019-06-20T09:43:02.895Z,70.40
2019-06-20T09:45:32.127Z,69.60
2019-06-20T09:48:02.560Z,69.40
2019-06-20T09:50:31.704Z,69.00
2019-06-20T09:53:00.787Z,69.20
2019-06-20T09:55:29.794Z,69.00
2019-06-20T09:57:58.899Z,71.80
2019-06-20T10:00:29.814Z,70.10
2019-06-20T10:02:58.895Z,70.20
2019-06-20T10:05:28.348Z,70.30
2019-06-20T10:07:57.483Z,70.00
2019-06-20T10:10:30.596Z,67.40
2019-06-20T10:13:00.042Z,69.30
2019-06-20T10:15:30.047Z,66.80
2019-06-20T10:17:59.147Z,66.50
2019-06-20T10:20:29.414Z,68.50
2019-06-20T10:22:58.486Z,70.80
2019-06-20T10:25:27.607Z,71.20
2019-06-20T10:27:57.882Z,71.10
2019-06-20T10:30:27.859Z,70.60
2019-06-20T10:32:57.738Z,70.60
2019-06-20T10:35:27.098Z,70.20
2019-06-20T10:37:57.213Z,69.90
2019-06-20T10:40:27.661Z,68.60
2019-06-20T10:42:57.074Z,71.30
2019-06-20T10:45:27.482Z,70.00
2019-06-20T10:47:56.833Z,71.10
2019-06-20T10:50:26.164Z,70.60
2019-06-20T10:52:55.311Z,69.00
2019-06-20T10:55:24.437Z,68.70
2019-06-20T10:57:53.457Z,71.20
2019-06-20T11:00:30.792Z,69.50
2019-06-20T11:02:53.937Z,70.10
2019-06-20T11:05:24.136Z,72.30
2019-06-20T11:07:53.317Z,72.20
2019-06-20T11:10:23.147Z,72.80
2019-06-20T11:12:55.698Z,71.20
2019-06-20T11:15:24.769Z,73.10
2019-06-20T11:17:56.384Z,73.70
2019-06-20T11:20:26.132Z,74.30
2019-06-20T11:22:55.120Z,74.10
2019-06-20T11:25:24.251Z,74.50
2019-06-20T11:27:53.237Z,74.40
2019-06-20T11:30:23.284Z,74.80
2019-06-20T11:32:52.354Z,76.40
2019-06-20T11:35:21.451Z,76.50
2019-06-20T11:37:50.530Z,73.80
2019-06-20T11:40:21.899Z,75.00
2019-06-20T11:42:50.970Z,76.80
2019-06-20T11:45:20.103Z,76.30
2019-06-20T11:47:49.178Z,76.10
2019-06-20T11:50:18.818Z,74.40
2019-06-20T11:52:48.002Z,73.80
2019-06-20T11:55:18.142Z,74.10
2019-06-20T11:57:47.123Z,73.10
2019-06-20T12:00:16.832Z,73.50
2019-06-20T12:02:46.245Z,72.60
2019-06-20T12:05:15.985Z,70.50
2019-06-20T12:07:45.652Z,68.60
2019-06-20T12:10:15.617Z,69.50
2019-06-20T12:12:44.862Z,71.00
2019-06-20T12:15:14.222Z,69.30
2019-06-20T12:17:45.176Z,69.40
2019-06-20T12:20:14.816Z,68.40
2019-06-20T12:22:45.029Z,65.90
2019-06-20T12:25:14.702Z,64.10
2019-06-20T12:27:45.382Z,64.90
2019-06-20T12:30:15.567Z,62.70
2019-06-20T12:32:44.811Z,62.60
2019-06-20T12:35:14.187Z,61.70
2019-06-20T12:37:43.355Z,60.30
2019-06-20T12:40:13.313Z,61.80
2019-06-20T12:42:43.235Z,61.70
2019-06-20T12:45:15.735Z,60.60
2019-06-20T12:47:46.081Z,60.60
2019-06-20T12:50:16.168Z,61.40
2019-06-20T12:52:45.849Z,61.60
2019-06-20T12:55:16.100Z,62.20
2019-06-20T12:57:46.322Z,60.50
2019-06-20T13:00:16.495Z,60.30
2019-06-20T13:02:45.709Z,60.00
2019-06-20T13:05:15.823Z,61.80
2019-06-20T13:07:46.271Z,62.80
2019-06-20T13:10:16.029Z,62.50
2019-06-20T13:12:46.349Z,62.70
2019-06-20T13:15:34.697Z,62.20
2019-06-20T13:18:03.824Z,61.40
2019-06-20T13:20:52.091Z,62.60
2019-06-20T13:23:21.075Z,65.00
2019-06-20T13:25:50.147Z,63.70
2019-06-20T13:28:19.137Z,64.80
2019-06-20T13:30:51.663Z,65.70
2019-06-20T13:33:19.320Z,64.80
2019-06-20T13:35:48.763Z,66.80
2019-06-20T13:38:17.782Z,67.90
2019-06-20T13:40:47.259Z,65.90
2019-06-20T13:43:16.479Z,67.40
2019-06-20T13:45:47.177Z,67.90
2019-06-20T13:48:16.323Z,67.60
2019-06-20T13:50:45.420Z,66.20
2019-06-20T13:53:14.454Z,66.10
2019-06-20T13:55:44.082Z,66.70
2019-06-20T13:58:13.552Z,68.50
2019-06-20T14:00:43.500Z,67.90
2019-06-20T14:03:13.283Z,66.50
2019-06-20T14:05:42.822Z,66.10
2019-06-20T14:08:12.113Z,67.80
2019-06-20T14:10:41.237Z,68.90
2019-06-20T14:13:19.247Z,68.00
2019-06-20T14:15:42.662Z,67.20
2019-06-20T14:18:11.941Z,66.90
2019-06-20T14:20:43.169Z,67.60
2019-06-20T14:23:11.754Z,68.20
2019-06-20T14:25:40.911Z,68.60
2019-06-20T14:28:10.050Z,69.60
2019-06-20T14:30:39.234Z,70.80
2019-06-20T14:33:08.269Z,71.70
2019-06-20T14:35:37.316Z,73.60
2019-06-20T14:38:06.456Z,74.80
2019-06-20T14:40:35.521Z,75.70
2019-06-20T14:43:04.656Z,76.10
2019-06-20T14:45:33.727Z,83.10
2019-06-20T14:48:04.075Z,85.30
2019-06-20T14:50:33.253Z,91.80
2019-06-20T14:53:02.400Z,94.90
2019-06-20T14:55:31.539Z,97.60
2019-06-20T14:58:00.650Z,98.40
2019-06-20T15:00:30.096Z,97.90
2019-06-20T15:02:59.243Z,99.40
2019-06-20T15:05:28.323Z,98.40
2019-06-20T15:07:57.428Z,98.10
2019-06-20T15:10:26.433Z,98.40
2019-06-20T15:12:55.823Z,99.50
2019-06-20T15:15:25.262Z,99.90
2019-06-20T15:17:57.476Z,99.70
2019-06-20T15:20:25.171Z,99.90
2019-06-20T15:22:54.673Z,99.90
2019-06-20T15:25:24.073Z,99.90
2019-06-20T15:27:54.858Z,99.90
2019-06-20T15:30:23.858Z,99.90
2019-06-20T15:33:04.260Z,99.90
2019-06-20T15:35:23.614Z,99.90
2019-06-20T15:37:53.855Z,99.90
2019-06-20T15:40:23.533Z,99.90
2019-06-20T15:42:54.941Z,99.90
2019-06-20T15:45:24.429Z,99.90
2019-06-20T15:47:53.499Z,99.90
2019-06-20T15:50:22.505Z,99.90
2019-06-20T15:52:51.600Z,99.90
2019-06-20T15:55:20.681Z,99.90
2019-06-20T15:57:49.863Z,99.90
2019-06-20T16:00:19.772Z,99.90
2019-06-20T16:02:48.765Z,99.90
2019-06-20T16:05:18.117Z,99.90
2019-06-20T16:07:47.201Z,99.90
2019-06-20T16:10:16.730Z,99.90
2019-06-20T16:12:45.927Z,99.90
2019-06-20T16:15:21.907Z,99.90
2019-06-20T16:17:51.159Z,99.90
2019-06-20T16:20:20.603Z,99.90
2019-06-20T16:22:49.706Z,99.90
2019-06-20T16:25:20.112Z,99.90
2019-06-20T16:27:49.221Z,99.90
2019-06-20T16:30:20.123Z,99.90
2019-06-20T16:32:49.303Z,99.90
2019-06-20T16:35:18.806Z,99.90
2019-06-20T16:37:47.918Z,99.90
2019-06-20T16:40:17.107Z,99.90
2019-06-20T16:42:46.108Z,99.90
2019-06-20T16:45:15.544Z,98.60
2019-06-20T16:47:44.659Z,97.60
2019-06-20T16:50:13.643Z,96.70
2019-06-20T16:52:42.724Z,96.80
2019-06-20T16:55:12.071Z,97.90
2019-06-20T16:57:41.177Z,96.30
2019-06-20T17:00:11.086Z,92.40
2019-06-20T17:02:40.236Z,93.80
2019-06-20T17:05:09.759Z,94.80
2019-06-20T17:07:38.902Z,94.00
2019-06-20T17:10:08.533Z,94.50
2019-06-20T17:12:37.803Z,95.70
2019-06-20T17:15:07.358Z,92.90
2019-06-20T17:17:36.432Z,90.70
2019-06-20T17:20:05.790Z,93.00
2019-06-20T17:22:34.892Z,92.00
2019-06-20T17:25:04.063Z,92.00
2019-06-20T17:27:33.123Z,93.20
2019-06-20T17:30:02.283Z,91.40
2019-06-20T17:32:31.347Z,91.70
2019-06-20T17:35:00.251Z,91.50
2019-06-20T17:37:29.259Z,91.20
2019-06-20T17:39:58.239Z,91.70
2019-06-20T17:42:27.340Z,92.00
2019-06-20T17:44:56.338Z,92.30
2019-06-20T17:47:25.322Z,91.40
2019-06-20T17:49:54.358Z,91.70
2019-06-20T17:52:23.434Z,92.90
2019-06-20T17:54:52.624Z,93.40
2019-06-20T17:57:21.649Z,93.40
2019-06-20T17:59:50.694Z,93.50
2019-06-20T18:02:19.751Z,94.10
2019-06-20T18:04:48.751Z,94.30
2019-06-20T18:07:17.960Z,94.50
2019-06-20T18:09:47.022Z,94.70
2019-06-20T18:12:16.207Z,94.30
2019-06-20T18:14:45.194Z,94.30
2019-06-20T18:17:14.338Z,94.70
2019-06-20T18:19:43.489Z,94.40
2019-06-20T18:22:12.545Z,95.10
2019-06-20T18:24:41.593Z,94.90
2019-06-20T18:27:10.669Z,94.70
2019-06-20T18:29:39.767Z,94.80
2019-06-20T18:32:08.771Z,94.60
2019-06-20T18:34:37.706Z,94.00
2019-06-20T18:37:06.790Z,94.60
2019-06-20T18:39:35.716Z,94.90
2019-06-20T18:42:04.895Z,94.90
2019-06-20T18:44:33.992Z,95.00
2019-06-20T18:47:03.054Z,94.60
2019-06-20T18:49:32.063Z,95.00
2019-06-20T18:52:01.071Z,95.10
2019-06-20T18:54:30.204Z,95.10
2019-06-20T18:56:59.292Z,94.90
2019-06-20T18:59:28.364Z,94.90
2019-06-20T19:01:57.384Z,95.40
2019-06-20T19:04:26.372Z,95.60
2019-06-20T19:06:55.418Z,95.10
2019-06-20T19:09:24.476Z,95.10
2019-06-20T19:11:53.546Z,95.20
2019-06-20T19:14:22.678Z,95.40
2019-06-20T19:16:51.651Z,95.50
2019-06-20T19:19:20.985Z,95.60
2019-06-20T19:21:50.166Z,95.40
2019-06-20T19:24:19.336Z,95.80
2019-06-20T19:26:48.407Z,95.70
2019-06-20T19:29:17.548Z,95.90
2019-06-20T19:31:46.618Z,96.20
2019-06-20T19:34:15.574Z,95.90
2019-06-20T19:36:44.652Z,95.50
2019-06-20T19:39:13.773Z,95.60
2019-06-20T19:41:42.827Z,95.80
2019-06-20T19:44:11.740Z,95.60
2019-06-20T19:46:40.920Z,95.10
2019-06-20T19:49:09.991Z,95.20
2019-06-20T19:51:39.102Z,95.20
2019-06-20T19:54:08.278Z,95.40
2019-06-20T19:56:37.326Z,95.20
2019-06-20T19:59:06.436Z,95.30
2019-06-20T20:01:35.546Z,95.50
2019-06-20T20:04:04.679Z,95.50
2019-06-20T20:06:33.822Z,96.30
2019-06-20T20:09:03.067Z,96.40
2019-06-20T20:11:32.139Z,96.60
2019-06-20T20:14:01.348Z,95.30
2019-06-20T20:16:30.522Z,95.60
2019-06-20T20:18:59.592Z,95.20
2019-06-20T20:21:28.702Z,95.80
2019-06-20T20:24:16.850Z,95.40
2019-06-20T20:26:45.804Z,95.60
2019-06-20T20:29:14.732Z,95.90
2019-06-20T20:31:43.784Z,95.00
2019-06-20T20:34:12.794Z,96.80
2019-06-20T20:36:41.955Z,95.80
2019-06-20T20:39:10.974Z,95.60
2019-06-20T20:41:40.045Z,95.30
2019-06-20T20:44:09.076Z,95.20
2019-06-20T20:46:38.240Z,95.90
2019-06-20T20:49:07.369Z,96.30
2019-06-20T20:51:36.564Z,95.90
2019-06-20T20:54:05.636Z,95.80
2019-06-20T20:56:34.700Z,96.10
2019-06-20T20:59:03.785Z,95.80
2019-06-20T21:01:35.481Z,95.40
2019-06-20T21:04:03.590Z,95.10
2019-06-20T21:06:32.713Z,95.90
2019-06-20T21:09:01.847Z,95.80
2019-06-20T21:11:31.031Z,95.90
2019-06-20T21:14:00.216Z,96.20
2019-06-20T21:16:29.197Z,96.00
2019-06-20T21:18:58.251Z,95.70
2019-06-20T21:21:27.264Z,95.10
2019-06-20T21:23:56.382Z,95.80
2019-06-20T21:26:25.414Z,96.40
2019-06-20T21:28:54.478Z,96.10
2019-06-20T21:31:23.474Z,96.60
2019-06-20T21:33:54.503Z,96.90
2019-06-20T21:36:23.267Z,96.60
2019-06-20T21:38:52.351Z,96.90
2019-06-20T21:41:21.442Z,97.20
2019-06-20T21:43:50.461Z,97.00
2019-06-20T21:46:19.552Z,96.70
2019-06-20T21:49:07.829Z,97.30
2019-06-20T21:51:36.851Z,96.20
2019-06-20T21:54:05.978Z,96.70
2019-06-20T21:56:35.051Z,95.20
2019-06-20T21:59:04.194Z,95.00
2019-06-20T22:01:33.637Z,96.00
2019-06-20T22:04:02.708Z,96.30
2019-06-20T22:06:31.782Z,97.00
2019-06-20T22:09:01.015Z,96.30
2019-06-20T22:11:30.135Z,96.10
2019-06-20T22:13:59.221Z,96.40
2019-06-20T22:16:28.258Z,95.70
2019-06-20T22:18:57.168Z,95.70
2019-06-20T22:21:45.440Z,95.50
2019-06-20T22:24:14.571Z,95.50
2019-06-20T22:26:43.719Z,95.40
2019-06-20T22:29:12.667Z,95.80
2019-06-20T22:31:41.813Z,95.90
2019-06-20T22:34:10.848Z,96.40
2019-06-20T22:36:40.772Z,96.00
2019-06-20T22:39:10.287Z,95.70
2019-06-20T22:41:39.432Z,96.30
2019-06-20T22:44:08.510Z,95.90
2019-06-20T22:46:37.457Z,95.40
2019-06-20T22:49:06.579Z,96.00
2019-06-20T22:51:35.643Z,96.70
2019-06-20T22:54:04.727Z,96.30
2019-06-20T22:56:33.787Z,96.60
2019-06-20T22:59:03.025Z,96.50
2019-06-20T23:01:32.195Z,95.80
2019-06-20T23:04:01.433Z,95.50
2019-06-20T23:06:30.470Z,95.80
2019-06-20T23:08:59.534Z,96.30
2019-06-20T23:11:28.626Z,96.20
2019-06-20T23:13:57.702Z,95.80
2019-06-20T23:16:26.742Z,95.60
2019-06-20T23:18:55.656Z,95.30
2019-06-20T23:21:24.723Z,96.10
2019-06-20T23:23:53.767Z,96.00
2019-06-20T23:26:22.839Z,95.40
2019-06-20T23:29:11.003Z,96.10
2019-06-20T23:31:40.077Z,95.70
2019-06-20T23:34:09.075Z,95.80
2019-06-20T23:36:38.075Z,95.50
2019-06-20T23:39:07.651Z,95.30
2019-06-20T23:41:36.777Z,96.00
2019-06-20T23:44:05.977Z,97.60
2019-06-20T23:46:35.086Z,97.60
2019-06-20T23:49:04.420Z,96.20
2019-06-20T23:51:35.249Z,95.60
2019-06-20T23:54:04.373Z,95.20
2019-06-20T23:56:33.491Z,96.30
2019-06-20T23:59:02.492Z,96.30
